Terminal Aerodrome Forecast
Issued by NWS

Home | Current Version | Previous Version | Text Only | Print | Product List | Glossary On
Versions: 1 2 3 4 5 6 7 8 9 10 11 12 13 14 15 16 17 18 19 20 21 22 23
000
FTUS43 KDMX 240938 AAA
TAFFOD
TAF AMD
KFOD 240938Z 2410/2506 02018G25KT 1 1/2SM -SN SCT008 OVC015
     FM241200 01021G32KT 1/4SM SN BLSN OVC004
     FM242000 36021G29KT 3/4SM -SN BLSN OVC008
     FM250000 34019G27KT 3SM -SN BLSN OVC020=

USA.gov is the U.S. government's official web portal to all federal, state and local government web resources and services.